Time,TemperatureF,DewpointF,PressureIn,WindDirection,WindDirectionDegrees,WindSpeedMPH,WindSpeedGustMPH,Humidity,HourlyPrecipIn,Conditions,Clouds,dailyrainin,SoftwareType,DateUTC
2013-05-06 00:01:00,59.0,-99.9,29.79,West,264,3.0,6.0,-999,-99.99,,,-99.99,,2013-05-06 07:01:00,
2013-05-06 00:11:00,59.0,-99.9,29.79,West,259,3.0,4.0,-999,-99.99,,,-99.99,,2013-05-06 07:11:00,
2013-05-06 00:22:00,59.0,-99.9,29.79,West,266,2.0,4.0,-999,-99.99,,,-99.99,,2013-05-06 07:22:00,
2013-05-06 00:32:00,59.0,-99.9,29.79,North,353,2.0,2.0,-999,-99.99,,,-99.99,,2013-05-06 07:32:00,
2013-05-06 00:42:00,58.0,-99.9,29.79,NNW,340,5.0,5.0,-999,-99.99,,,-99.99,,2013-05-06 07:42:00,
2013-05-06 00:52:00,58.0,-99.9,29.80,North,360,2.0,3.0,-999,-99.99,,,-99.99,,2013-05-06 07:52:00,
2013-05-06 01:02:00,58.0,-99.9,29.80,NNE,18,1.0,2.0,-999,-99.99,,,-99.99,,2013-05-06 08:02:00,
2013-05-06 01:12:00,58.0,-99.9,29.80,NNE,28,5.0,6.0,-999,-99.99,,,-99.99,,2013-05-06 08:12:00,
2013-05-06 01:22:00,57.0,-99.9,29.80,NNE,17,5.0,7.0,-999,-99.99,,,-99.99,,2013-05-06 08:22:00,
2013-05-06 01:32:00,58.0,-99.9,29.80,NNE,16,2.0,4.0,-999,-99.99,,,-99.99,,2013-05-06 08:32:00,
2013-05-06 01:42:00,58.0,-99.9,29.80,North,357,2.0,2.0,-999,-99.99,,,-99.99,,2013-05-06 08:42:00,
2013-05-06 01:52:00,57.0,-99.9,29.80,North,357,6.0,7.0,-999,-99.99,,,-99.99,,2013-05-06 08:52:00,
2013-05-06 02:02:00,58.0,-99.9,29.80,North,7,4.0,5.0,-999,-99.99,,,-99.99,,2013-05-06 09:02:00,
2013-05-06 02:11:00,58.0,-99.9,29.81,North,2,4.0,5.0,-999,-99.99,,,-99.99,,2013-05-06 09:11:00,
2013-05-06 02:22:00,58.0,-99.9,29.81,North,360,6.0,9.0,-999,-99.99,,,-99.99,,2013-05-06 09:22:00,
2013-05-06 02:33:00,58.0,-99.9,29.81,North,359,7.0,8.0,-999,-99.99,,,-99.99,,2013-05-06 09:33:00,
2013-05-06 02:43:00,58.0,-99.9,29.81,North,354,4.0,7.0,-999,-99.99,,,-99.99,,2013-05-06 09:43:00,
2013-05-06 02:53:00,58.0,-99.9,29.81,North,351,3.0,4.0,-999,-99.99,,,-99.99,,2013-05-06 09:53:00,
2013-05-06 03:03:00,58.0,-99.9,29.81,North,358,4.0,5.0,-999,-99.99,,,-99.99,,2013-05-06 10:03:00,
2013-05-06 03:12:00,58.0,-99.9,29.81,North,358,3.0,4.0,-999,-99.99,,,-99.99,,2013-05-06 10:12:00,
2013-05-06 03:22:00,58.0,-99.9,29.81,NNW,334,4.0,5.0,-999,-99.99,,,-99.99,,2013-05-06 10:22:00,
2013-05-06 03:33:00,58.0,-99.9,29.80,NW,320,3.0,5.0,-999,-99.99,,,-99.99,,2013-05-06 10:33:00,
2013-05-06 03:42:00,58.0,-99.9,29.80,NNW,338,3.0,4.0,-999,-99.99,,,-99.99,,2013-05-06 10:42:00,
2013-05-06 03:52:00,58.0,-99.9,29.80,NNW,335,3.0,5.0,-999,-99.99,,,-99.99,,2013-05-06 10:52:00,
2013-05-06 04:02:00,58.0,-99.9,29.80,NNW,343,5.0,6.0,-999,-99.99,,,-99.99,,2013-05-06 11:02:00,
2013-05-06 04:12:00,58.0,-99.9,29.80,NNW,345,6.0,6.0,-999,-99.99,,,-99.99,,2013-05-06 11:12:00,
2013-05-06 04:22:00,58.0,-99.9,29.80,North,355,6.0,7.0,-999,-99.99,,,-99.99,,2013-05-06 11:22:00,
2013-05-06 04:32:00,58.0,-99.9,29.80,North,360,7.0,9.0,-999,-99.99,,,-99.99,,2013-05-06 11:32:00,
2013-05-06 04:42:00,58.0,-99.9,29.80,North,353,6.0,9.0,-999,-99.99,,,-99.99,,2013-05-06 11:42:00,
2013-05-06 04:52:00,58.0,-99.9,29.80,North,351,6.0,8.0,-999,-99.99,,,-99.99,,2013-05-06 11:52:00,
2013-05-06 05:02:00,58.0,-99.9,29.80,NW,318,5.0,7.0,-999,-99.99,,,-99.99,,2013-05-06 12:02:00,
2013-05-06 05:12:00,58.0,-99.9,29.80,NW,316,4.0,6.0,-999,-99.99,,,-99.99,,2013-05-06 12:12:00,
2013-05-06 05:22:00,58.0,-99.9,29.80,WNW,283,4.0,5.0,-999,-99.99,,,-99.99,,2013-05-06 12:22:00,
2013-05-06 05:32:00,58.0,-99.9,29.80,WNW,292,4.0,7.0,-999,-99.99,,,-99.99,,2013-05-06 12:32:00,
2013-05-06 05:42:00,58.0,-99.9,29.80,NW,314,3.0,5.0,-999,-99.99,,,-99.99,,2013-05-06 12:42:00,
2013-05-06 05:52:00,58.0,-99.9,29.80,West,281,2.0,3.0,-999,-99.99,,,-99.99,,2013-05-06 12:52:00,
2013-05-06 06:01:00,58.0,-99.9,29.80,NNW,328,2.0,3.0,-999,-99.99,,,-99.99,,2013-05-06 13:01:00,
2013-05-06 06:11:00,58.0,-99.9,29.80,North,352,3.0,4.0,-999,-99.99,,,-99.99,,2013-05-06 13:11:00,
2013-05-06 06:22:00,58.0,-99.9,29.80,NNW,345,5.0,7.0,-999,-99.99,,,-99.99,,2013-05-06 13:22:00,
2013-05-06 06:32:00,58.0,-99.9,29.80,WNW,290,2.0,3.0,-999,-99.99,,,-99.99,,2013-05-06 13:32:00,
2013-05-06 06:42:00,58.0,-99.9,29.80,NNW,341,4.0,5.0,-999,-99.99,,,-99.99,,2013-05-06 13:42:00,
2013-05-06 06:52:00,58.0,-99.9,29.80,North,351,4.0,5.0,-999,-99.99,,,-99.99,,2013-05-06 13:52:00,
2013-05-06 07:02:00,58.0,-99.9,29.80,North,354,8.0,9.0,-999,-99.99,,,-99.99,,2013-05-06 14:02:00,
2013-05-06 07:11:00,58.0,-99.9,29.81,North,357,7.0,8.0,-999,-99.99,,,-99.99,,2013-05-06 14:11:00,
2013-05-06 07:21:00,58.0,-99.9,29.81,North,357,8.0,9.0,-999,-99.99,,,-99.99,,2013-05-06 14:21:00,
2013-05-06 07:32:00,58.0,-99.9,29.82,North,357,5.0,7.0,-999,-99.99,,,-99.99,,2013-05-06 14:32:00,
2013-05-06 07:42:00,58.0,-99.9,29.82,North,359,5.0,7.0,-999,-99.99,,,-99.99,,2013-05-06 14:42:00,
2013-05-06 07:52:00,59.0,-99.9,29.82,North,9,5.0,8.0,-999,-99.99,,,-99.99,,2013-05-06 14:52:00,
2013-05-06 08:01:00,60.0,-99.9,29.82,ENE,64,8.0,9.0,-999,-99.99,,,-99.99,,2013-05-06 15:01:00,
2013-05-06 08:11:00,61.0,-99.9,29.82,East,86,8.0,9.0,-999,-99.99,,,-99.99,,2013-05-06 15:11:00,
2013-05-06 08:22:00,60.0,-99.9,29.82,East,93,7.0,9.0,-999,-99.99,,,-99.99,,2013-05-06 15:22:00,
2013-05-06 08:33:00,61.0,-99.9,29.83,East,91,6.0,7.0,-999,-99.99,,,-99.99,,2013-05-06 15:33:00,
2013-05-06 08:43:00,61.0,-99.9,29.83,East,86,5.0,6.0,-999,-99.99,,,-99.99,,2013-05-06 15:43:00,
2013-05-06 08:53:00,61.0,-99.9,29.83,ESE,115,6.0,6.0,-999,-99.99,,,-99.99,,2013-05-06 15:53:00,
2013-05-06 09:03:00,61.0,-99.9,29.83,SE,141,6.0,7.0,-999,-99.99,,,-99.99,,2013-05-06 16:03:00,
2013-05-06 09:13:00,60.0,-99.9,29.83,SE,135,7.0,8.0,-999,-99.99,,,-99.99,,2013-05-06 16:13:00,
2013-05-06 09:23:00,61.0,-99.9,29.84,ESE,121,7.0,9.0,-999,-99.99,,,-99.99,,2013-05-06 16:23:00,
2013-05-06 09:33:00,61.0,-99.9,29.84,SE,134,8.0,10.0,-999,-99.99,,,-99.99,,2013-05-06 16:33:00,
2013-05-06 09:42:00,61.0,-99.9,29.84,SE,138,9.0,9.0,-999,-99.99,,,-99.99,,2013-05-06 16:42:00,
2013-05-06 09:52:00,61.0,-99.9,29.84,SE,142,9.0,11.0,-999,-99.99,,,-99.99,,2013-05-06 16:52:00,
2013-05-06 10:03:00,62.0,-99.9,29.85,SE,143,11.0,14.0,-999,-99.99,,,-99.99,,2013-05-06 17:03:00,
2013-05-06 10:12:00,61.0,-99.9,29.85,SE,140,11.0,14.0,-999,-99.99,,,-99.99,,2013-05-06 17:12:00,
2013-05-06 10:23:00,61.0,-99.9,29.85,SE,146,9.0,12.0,-999,-99.99,,,-99.99,,2013-05-06 17:23:00,
2013-05-06 10:32:00,62.0,-99.9,29.85,SE,143,9.0,12.0,-999,-99.99,,,-99.99,,2013-05-06 17:32:00,
2013-05-06 10:42:00,62.0,-99.9,29.85,SSE,148,10.0,13.0,-999,-99.99,,,-99.99,,2013-05-06 17:42:00,
2013-05-06 10:52:00,62.0,-99.9,29.85,SE,140,11.0,15.0,-999,-99.99,,,-99.99,,2013-05-06 17:52:00,
2013-05-06 11:02:00,63.0,-99.9,29.85,SSE,149,8.0,12.0,-999,-99.99,,,-99.99,,2013-05-06 18:02:00,
2013-05-06 11:12:00,63.0,-99.9,29.85,SSE,148,9.0,14.0,-999,-99.99,,,-99.99,,2013-05-06 18:12:00,
2013-05-06 11:22:00,62.0,-99.9,29.85,SE,139,7.0,11.0,-999,-99.99,,,-99.99,,2013-05-06 18:22:00,
2013-05-06 11:32:00,63.0,-99.9,29.85,SE,142,11.0,12.0,-999,-99.99,,,-99.99,,2013-05-06 18:32:00,
2013-05-06 11:43:00,63.0,-99.9,29.85,SE,137,10.0,14.0,-999,-99.99,,,-99.99,,2013-05-06 18:43:00,
2013-05-06 11:52:00,63.0,-99.9,29.85,SE,124,10.0,11.0,-999,-99.99,,,-99.99,,2013-05-06 18:52:00,
2013-05-06 12:01:00,63.0,-99.9,29.85,SE,126,8.0,9.0,-999,-99.99,,,-99.99,,2013-05-06 19:01:00,
2013-05-06 12:11:00,65.0,-99.9,29.86,SSE,153,8.0,12.0,-999,-99.99,,,-99.99,,2013-05-06 19:11:00,
2013-05-06 12:22:00,65.0,-99.9,29.86,SE,126,6.0,7.0,-999,-99.99,,,-99.99,,2013-05-06 19:22:00,
2013-05-06 12:32:00,64.0,-99.9,29.86,NNW,337,2.0,5.0,-999,-99.99,,,-99.99,,2013-05-06 19:32:00,
2013-05-06 12:42:00,64.0,-99.9,29.86,NNW,342,4.0,6.0,-999,-99.99,,,-99.99,,2013-05-06 19:42:00,
2013-05-06 12:52:00,66.0,-99.9,29.86,WNW,298,3.0,8.0,-999,-99.99,,,-99.99,,2013-05-06 19:52:00,
2013-05-06 13:02:00,65.0,-99.9,29.86,West,264,7.0,11.0,-999,-99.99,,,-99.99,,2013-05-06 20:02:00,
2013-05-06 13:11:00,65.0,-99.9,29.85,West,265,7.0,13.0,-999,-99.99,,,-99.99,,2013-05-06 20:11:00,
2013-05-06 13:22:00,65.0,-99.9,29.86,WSW,256,7.0,15.0,-999,-99.99,,,-99.99,,2013-05-06 20:22:00,
2013-05-06 13:32:00,64.0,-99.9,29.86,West,266,8.0,13.0,-999,-99.99,,,-99.99,,2013-05-06 20:32:00,
2013-05-06 13:42:00,65.0,-99.9,29.86,WSW,257,7.0,13.0,-999,-99.99,,,-99.99,,2013-05-06 20:42:00,
2013-05-06 13:52:00,64.0,-99.9,29.86,West,273,6.0,13.0,-999,-99.99,,,-99.99,,2013-05-06 20:52:00,
2013-05-06 14:01:00,64.0,-99.9,29.86,West,260,8.0,12.0,-999,-99.99,,,-99.99,,2013-05-06 21:01:00,
2013-05-06 14:11:00,65.0,-99.9,29.86,SW,216,4.0,11.0,-999,-99.99,,,-99.99,,2013-05-06 21:11:00,
2013-05-06 14:22:00,65.0,-99.9,29.86,West,262,7.0,13.0,-999,-99.99,,,-99.99,,2013-05-06 21:22:00,
2013-05-06 14:33:00,64.0,-99.9,29.86,West,264,12.0,15.0,-999,-99.99,,,-99.99,,2013-05-06 21:33:00,
2013-05-06 14:43:00,65.0,-99.9,29.86,West,262,10.0,16.0,-999,-99.99,,,-99.99,,2013-05-06 21:43:00,
2013-05-06 14:53:00,64.0,-99.9,29.87,West,261,9.0,15.0,-999,-99.99,,,-99.99,,2013-05-06 21:53:00,
2013-05-06 15:03:00,65.0,-99.9,29.87,West,260,6.0,13.0,-999,-99.99,,,-99.99,,2013-05-06 22:03:00,
2013-05-06 15:12:00,65.0,-99.9,29.87,WSW,254,9.0,13.0,-999,-99.99,,,-99.99,,2013-05-06 22:12:00,
2013-05-06 15:22:00,65.0,-99.9,29.86,WSW,250,7.0,13.0,-999,-99.99,,,-99.99,,2013-05-06 22:22:00,
2013-05-06 15:33:00,65.0,-99.9,29.86,West,265,11.0,15.0,-999,-99.99,,,-99.99,,2013-05-06 22:33:00,
2013-05-06 15:45:00,66.0,-99.9,29.86,West,265,9.0,14.0,-999,-99.99,,,-99.99,,2013-05-06 22:45:00,
2013-05-06 15:53:00,67.0,-99.9,29.85,WSW,257,4.0,12.0,-999,-99.99,,,-99.99,,2013-05-06 22:53:00,
2013-05-06 16:03:00,66.0,-99.9,29.85,West,259,10.0,14.0,-999,-99.99,,,-99.99,,2013-05-06 23:03:00,
2013-05-06 16:12:00,66.0,-99.9,29.85,West,262,8.0,15.0,-999,-99.99,,,-99.99,,2013-05-06 23:12:00,
2013-05-06 16:22:00,67.0,-99.9,29.85,West,263,7.0,14.0,-999,-99.99,,,-99.99,,2013-05-06 23:22:00,
2013-05-06 16:32:00,66.0,-99.9,29.85,West,274,10.0,15.0,-999,-99.99,,,-99.99,,2013-05-06 23:32:00,
2013-05-06 16:42:00,66.0,-99.9,29.85,West,270,11.0,17.0,-999,-99.99,,,-99.99,,2013-05-06 23:42:00,
2013-05-06 16:52:00,65.0,-99.9,29.85,WSW,243,10.0,14.0,-999,-99.99,,,-99.99,,2013-05-06 23:52:00,
2013-05-06 17:01:00,65.0,-99.9,29.85,West,265,11.0,16.0,-999,-99.99,,,-99.99,,2013-05-07 00:01:00,
2013-05-06 17:12:00,65.0,-99.9,29.85,SW,231,6.0,14.0,-999,-99.99,,,-99.99,,2013-05-07 00:12:00,
2013-05-06 17:22:00,65.0,-99.9,29.85,West,259,7.0,17.0,-999,-99.99,,,-99.99,,2013-05-07 00:22:00,
2013-05-06 17:32:00,65.0,-99.9,29.85,West,261,9.0,14.0,-999,-99.99,,,-99.99,,2013-05-07 00:32:00,
2013-05-06 17:42:00,64.0,-99.9,29.85,West,261,9.0,14.0,-999,-99.99,,,-99.99,,2013-05-07 00:42:00,
2013-05-06 17:52:00,64.0,-99.9,29.85,West,261,9.0,14.0,-999,-99.99,,,-99.99,,2013-05-07 00:52:00,
2013-05-06 18:01:00,64.0,-99.9,29.86,West,262,8.0,15.0,-999,-99.99,,,-99.99,,2013-05-07 01:01:00,
2013-05-06 18:11:00,64.0,-99.9,29.86,West,261,9.0,15.0,-999,-99.99,,,-99.99,,2013-05-07 01:11:00,
2013-05-06 18:21:00,64.0,-99.9,29.86,WSW,258,8.0,15.0,-999,-99.99,,,-99.99,,2013-05-07 01:21:00,
2013-05-06 18:32:00,63.0,-99.9,29.86,West,266,9.0,15.0,-999,-99.99,,,-99.99,,2013-05-07 01:32:00,
2013-05-06 18:42:00,63.0,-99.9,29.86,West,261,3.0,14.0,-999,-99.99,,,-99.99,,2013-05-07 01:42:00,
2013-05-06 18:53:00,62.0,-99.9,29.86,WSW,246,10.0,13.0,-999,-99.99,,,-99.99,,2013-05-07 01:53:00,
2013-05-06 19:02:00,64.0,-99.9,29.85,WSW,237,4.0,8.0,-999,-99.99,,,-99.99,,2013-05-07 02:02:00,
2013-05-06 19:11:00,62.0,-99.9,29.85,West,271,9.0,15.0,-999,-99.99,,,-99.99,,2013-05-07 02:11:00,
2013-05-06 19:22:00,61.0,-99.9,29.86,West,261,9.0,16.0,-999,-99.99,,,-99.99,,2013-05-07 02:22:00,
2013-05-06 19:32:00,61.0,-99.9,29.86,West,262,9.0,15.0,-999,-99.99,,,-99.99,,2013-05-07 02:32:00,
2013-05-06 19:42:00,60.0,-99.9,29.86,West,259,6.0,14.0,-999,-99.99,,,-99.99,,2013-05-07 02:42:00,
2013-05-06 19:52:00,60.0,-99.9,29.86,West,261,10.0,15.0,-999,-99.99,,,-99.99,,2013-05-07 02:52:00,
2013-05-06 20:02:00,60.0,-99.9,29.87,WSW,254,8.0,14.0,-999,-99.99,,,-99.99,,2013-05-07 03:02:00,
2013-05-06 20:12:00,60.0,-99.9,29.87,WSW,248,9.0,15.0,-999,-99.99,,,-99.99,,2013-05-07 03:12:00,
2013-05-06 20:22:00,60.0,-99.9,29.87,West,261,10.0,14.0,-999,-99.99,,,-99.99,,2013-05-07 03:22:00,
2013-05-06 20:33:00,60.0,-99.9,29.88,WSW,257,7.0,14.0,-999,-99.99,,,-99.99,,2013-05-07 03:33:00,
2013-05-06 20:43:00,60.0,-99.9,29.88,WSW,237,8.0,14.0,-999,-99.99,,,-99.99,,2013-05-07 03:43:00,
2013-05-06 20:53:00,60.0,-99.9,29.88,WSW,256,7.0,12.0,-999,-99.99,,,-99.99,,2013-05-07 03:53:00,
2013-05-06 21:03:00,59.0,-99.9,29.89,West,260,11.0,14.0,-999,-99.99,,,-99.99,,2013-05-07 04:03:00,
2013-05-06 21:12:00,59.0,-99.9,29.89,West,263,9.0,14.0,-999,-99.99,,,-99.99,,2013-05-07 04:12:00,
2013-05-06 21:23:00,60.0,-99.9,29.89,West,260,9.0,13.0,-999,-99.99,,,-99.99,,2013-05-07 04:23:00,
2013-05-06 21:33:00,60.0,-99.9,29.90,WSW,254,8.0,13.0,-999,-99.99,,,-99.99,,2013-05-07 04:33:00,
2013-05-06 21:42:00,60.0,-99.9,29.91,WSW,258,9.0,15.0,-999,-99.99,,,-99.99,,2013-05-07 04:42:00,
2013-05-06 21:53:00,60.0,-99.9,29.91,WSW,256,9.0,13.0,-999,-99.99,,,-99.99,,2013-05-07 04:53:00,
2013-05-06 22:02:00,60.0,-99.9,29.92,WSW,256,10.0,13.0,-999,-99.99,,,-99.99,,2013-05-07 05:02:00,
2013-05-06 22:12:00,60.0,-99.9,29.92,WSW,252,7.0,14.0,-999,-99.99,,,-99.99,,2013-05-07 05:12:00,
2013-05-06 22:22:00,59.0,-99.9,29.93,West,262,10.0,13.0,-999,-99.99,,,-99.99,,2013-05-07 05:22:00,
2013-05-06 22:32:00,59.0,-99.9,29.93,West,261,9.0,12.0,-999,-99.99,,,-99.99,,2013-05-07 05:32:00,
2013-05-06 22:42:00,59.0,-99.9,29.94,West,267,8.0,11.0,-999,-99.99,,,-99.99,,2013-05-07 05:42:00,
2013-05-06 22:52:00,59.0,-99.9,29.94,West,265,5.0,11.0,-999,-99.99,,,-99.99,,2013-05-07 05:52:00,
2013-05-06 23:02:00,59.0,-99.9,29.94,West,264,6.0,11.0,-999,-99.99,,,-99.99,,2013-05-07 06:02:00,
2013-05-06 23:12:00,58.0,-99.9,29.94,West,259,10.0,16.0,-999,-99.99,,,-99.99,,2013-05-07 06:12:00,
2013-05-06 23:22:00,58.0,-99.9,29.94,WSW,257,7.0,11.0,-999,-99.99,,,-99.99,,2013-05-07 06:22:00,
2013-05-06 23:32:00,58.0,-99.9,29.95,West,259,9.0,12.0,-999,-99.99,,,-99.99,,2013-05-07 06:32:00,
2013-05-06 23:42:00,58.0,-99.9,29.95,WSW,255,6.0,12.0,-999,-99.99,,,-99.99,,2013-05-07 06:42:00,
2013-05-06 23:52:00,58.0,-99.9,29.95,WSW,257,7.0,10.0,-999,-99.99,,,-99.99,,2013-05-07 06:52:00,